sensor_id;sensor_type;location;lat;lon;timestamp;pressure;altitude;pressure_sealevel;temperature;humidity
9676;BME280;4876;42.656;23.292;2023-12-07T00:01:58;93985.75;;;5.48;100.00
9676;BME280;4876;42.656;23.292;2023-12-07T00:04:26;93984.78;;;5.57;100.00
9676;BME280;4876;42.656;23.292;2023-12-07T00:06:53;93994.00;;;5.68;100.00
9676;BME280;4876;42.656;23.292;2023-12-07T00:09:20;93988.16;;;5.58;100.00
9676;BME280;4876;42.656;23.292;2023-12-07T00:11:47;93988.66;;;5.27;100.00
9676;BME280;4876;42.656;23.292;2023-12-07T00:14:14;93984.00;;;5.57;100.00
9676;BME280;4876;42.656;23.292;2023-12-07T00:16:41;93989.13;;;5.48;100.00
9676;BME280;4876;42.656;23.292;2023-12-07T00:19:08;93988.97;;;5.39;100.00
9676;BME280;4876;42.656;23.292;2023-12-07T00:21:36;94000.25;;;5.54;100.00
9676;BME280;4876;42.656;23.292;2023-12-07T00:24:04;93997.06;;;5.71;100.00
9676;BME280;4876;42.656;23.292;2023-12-07T00:26:31;93998.84;;;5.75;100.00
9676;BME280;4876;42.656;23.292;2023-12-07T00:28:58;94003.38;;;5.83;100.00
9676;BME280;4876;42.656;23.292;2023-12-07T00:31:25;93999.72;;;5.84;100.00
9676;BME280;4876;42.656;23.292;2023-12-07T00:33:51;93990.16;;;5.80;100.00
9676;BME280;4876;42.656;23.292;2023-12-07T00:36:18;93995.16;;;5.76;100.00
9676;BME280;4876;42.656;23.292;2023-12-07T00:38:47;93982.94;;;5.90;100.00
9676;BME280;4876;42.656;23.292;2023-12-07T00:41:14;93993.06;;;5.78;100.00
9676;BME280;4876;42.656;23.292;2023-12-07T00:43:41;93999.06;;;5.27;100.00
9676;BME280;4876;42.656;23.292;2023-12-07T00:46:08;93995.97;;;5.25;100.00
9676;BME280;4876;42.656;23.292;2023-12-07T00:48:34;93988.66;;;5.60;100.00
9676;BME280;4876;42.656;23.292;2023-12-07T00:51:01;93995.34;;;5.66;100.00
9676;BME280;4876;42.656;23.292;2023-12-07T00:53:29;93990.06;;;5.52;100.00
9676;BME280;4876;42.656;23.292;2023-12-07T00:55:57;93982.31;;;5.80;100.00
9676;BME280;4876;42.656;23.292;2023-12-07T00:58:24;93980.22;;;5.96;100.00
9676;BME280;4876;42.656;23.292;2023-12-07T01:00:51;93983.44;;;5.92;100.00
9676;BME280;4876;42.656;23.292;2023-12-07T01:03:18;93987.16;;;5.86;100.00
9676;BME280;4876;42.656;23.292;2023-12-07T01:05:45;93971.81;;;5.85;100.00
9676;BME280;4876;42.656;23.292;2023-12-07T01:08:12;93977.22;;;6.02;100.00
9676;BME280;4876;42.656;23.292;2023-12-07T01:10:39;93980.06;;;6.06;100.00
9676;BME280;4876;42.656;23.292;2023-12-07T01:13:07;93982.19;;;6.04;99.32
9676;BME280;4876;42.656;23.292;2023-12-07T01:15:34;93983.25;;;6.03;99.28
9676;BME280;4876;42.656;23.292;2023-12-07T01:18:01;93973.59;;;6.03;100.00
9676;BME280;4876;42.656;23.292;2023-12-07T01:20:28;93978.22;;;6.06;100.00
9676;BME280;4876;42.656;23.292;2023-12-07T01:22:55;93980.72;;;5.98;100.00
9676;BME280;4876;42.656;23.292;2023-12-07T01:25:22;93980.75;;;6.11;99.64
9676;BME280;4876;42.656;23.292;2023-12-07T01:27:49;93970.88;;;6.08;98.29
9676;BME280;4876;42.656;23.292;2023-12-07T01:30:18;93970.69;;;6.05;98.52
9676;BME280;4876;42.656;23.292;2023-12-07T01:32:45;93966.47;;;5.90;100.00
9676;BME280;4876;42.656;23.292;2023-12-07T01:35:12;93969.31;;;5.93;100.00
9676;BME280;4876;42.656;23.292;2023-12-07T01:37:38;93967.38;;;5.99;100.00
9676;BME280;4876;42.656;23.292;2023-12-07T01:40:06;93967.69;;;5.98;100.00
9676;BME280;4876;42.656;23.292;2023-12-07T01:42:36;93967.78;;;5.92;100.00
9676;BME280;4876;42.656;23.292;2023-12-07T01:45:04;93968.75;;;5.97;100.00
9676;BME280;4876;42.656;23.292;2023-12-07T01:47:35;93962.91;;;5.86;100.00
9676;BME280;4876;42.656;23.292;2023-12-07T01:50:03;93973.00;;;5.92;100.00
9676;BME280;4876;42.656;23.292;2023-12-07T01:52:31;93969.63;;;6.06;100.00
9676;BME280;4876;42.656;23.292;2023-12-07T01:54:59;93966.31;;;6.14;100.00
9676;BME280;4876;42.656;23.292;2023-12-07T01:57:26;93975.13;;;6.18;98.73
9676;BME280;4876;42.656;23.292;2023-12-07T01:59:53;93965.06;;;6.11;98.54
9676;BME280;4876;42.656;23.292;2023-12-07T02:02:20;93965.47;;;6.05;98.60
9676;BME280;4876;42.656;23.292;2023-12-07T02:04:48;93972.13;;;6.11;99.59
9676;BME280;4876;42.656;23.292;2023-12-07T02:07:17;93961.59;;;6.16;100.00
9676;BME280;4876;42.656;23.292;2023-12-07T02:09:45;93965.16;;;6.20;99.71
9676;BME280;4876;42.656;23.292;2023-12-07T02:12:12;93968.84;;;6.05;99.27
9676;BME280;4876;42.656;23.292;2023-12-07T02:14:39;93964.47;;;6.01;100.00
9676;BME280;4876;42.656;23.292;2023-12-07T02:17:14;93961.44;;;5.66;100.00
9676;BME280;4876;42.656;23.292;2023-12-07T02:19:52;93966.91;;;5.64;100.00
9676;BME280;4876;42.656;23.292;2023-12-07T02:22:25;93960.47;;;5.62;100.00
9676;BME280;4876;42.656;23.292;2023-12-07T02:25:04;93957.47;;;5.82;100.00
9676;BME280;4876;42.656;23.292;2023-12-07T02:27:40;93959.66;;;6.08;100.00
9676;BME280;4876;42.656;23.292;2023-12-07T02:30:09;93955.78;;;6.19;100.00
9676;BME280;4876;42.656;23.292;2023-12-07T02:32:37;93952.09;;;6.20;100.00
9676;BME280;4876;42.656;23.292;2023-12-07T02:35:05;93956.75;;;6.23;100.00
9676;BME280;4876;42.656;23.292;2023-12-07T02:37:35;93957.16;;;6.16;100.00
9676;BME280;4876;42.656;23.292;2023-12-07T02:40:07;93952.13;;;5.92;100.00
9676;BME280;4876;42.656;23.292;2023-12-07T02:42:37;93949.81;;;5.91;100.00
9676;BME280;4876;42.656;23.292;2023-12-07T02:45:06;93952.78;;;5.52;100.00
9676;BME280;4876;42.656;23.292;2023-12-07T02:47:34;93948.19;;;5.76;100.00
9676;BME280;4876;42.656;23.292;2023-12-07T02:50:02;93949.56;;;5.87;100.00
9676;BME280;4876;42.656;23.292;2023-12-07T02:52:29;93949.22;;;6.08;100.00
9676;BME280;4876;42.656;23.292;2023-12-07T02:54:56;93950.19;;;6.12;100.00
9676;BME280;4876;42.656;23.292;2023-12-07T02:57:23;93953.38;;;6.09;100.00
9676;BME280;4876;42.656;23.292;2023-12-07T02:59:50;93947.19;;;6.05;100.00
9676;BME280;4876;42.656;23.292;2023-12-07T03:02:18;93946.81;;;5.98;99.73
9676;BME280;4876;42.656;23.292;2023-12-07T03:04:46;93943.28;;;5.88;100.00
9676;BME280;4876;42.656;23.292;2023-12-07T03:07:13;93949.25;;;5.75;100.00
9676;BME280;4876;42.656;23.292;2023-12-07T03:09:40;93949.50;;;5.46;100.00
9676;BME280;4876;42.656;23.292;2023-12-07T03:12:07;93950.38;;;5.42;100.00
9676;BME280;4876;42.656;23.292;2023-12-07T03:14:34;93958.13;;;5.47;100.00
9676;BME280;4876;42.656;23.292;2023-12-07T03:17:01;93960.47;;;5.62;100.00
9676;BME280;4876;42.656;23.292;2023-12-07T03:19:29;93960.88;;;5.36;100.00
9676;BME280;4876;42.656;23.292;2023-12-07T03:21:56;93966.66;;;5.33;100.00
9676;BME280;4876;42.656;23.292;2023-12-07T03:24:23;93966.41;;;5.49;100.00
9676;BME280;4876;42.656;23.292;2023-12-07T03:26:50;93977.69;;;5.44;100.00
9676;BME280;4876;42.656;23.292;2023-12-07T03:29:17;93980.84;;;5.60;100.00
9676;BME280;4876;42.656;23.292;2023-12-07T03:31:44;93978.50;;;5.58;100.00
9676;BME280;4876;42.656;23.292;2023-12-07T03:34:11;93981.53;;;5.65;100.00
9676;BME280;4876;42.656;23.292;2023-12-07T03:36:42;93991.09;;;5.70;99.00
9676;BME280;4876;42.656;23.292;2023-12-07T03:39:09;93988.31;;;5.80;97.75
9676;BME280;4876;42.656;23.292;2023-12-07T03:41:36;93988.78;;;5.82;97.71
9676;BME280;4876;42.656;23.292;2023-12-07T03:44:03;93983.63;;;5.63;97.83
9676;BME280;4876;42.656;23.292;2023-12-07T03:46:30;93986.84;;;5.60;98.91
9676;BME280;4876;42.656;23.292;2023-12-07T03:48:57;93969.06;;;5.76;99.57
9676;BME280;4876;42.656;23.292;2023-12-07T03:51:25;93975.28;;;5.80;99.13
9676;BME280;4876;42.656;23.292;2023-12-07T03:53:54;93975.28;;;5.80;98.97
9676;BME280;4876;42.656;23.292;2023-12-07T03:56:25;93971.03;;;5.84;98.45
9676;BME280;4876;42.656;23.292;2023-12-07T03:58:52;93970.69;;;5.91;97.08
9676;BME280;4876;42.656;23.292;2023-12-07T04:01:21;93966.78;;;6.02;97.25
9676;BME280;4876;42.656;23.292;2023-12-07T04:03:49;93967.91;;;5.82;97.72
9676;BME280;4876;42.656;23.292;2023-12-07T04:06:16;93973.47;;;5.94;98.38
9676;BME280;4876;42.656;23.292;2023-12-07T04:08:44;93972.13;;;5.64;99.72
9676;BME280;4876;42.656;23.292;2023-12-07T04:11:13;93971.94;;;5.61;100.00
9676;BME280;4876;42.656;23.292;2023-12-07T04:13:41;93970.06;;;5.80;100.00
9676;BME280;4876;42.656;23.292;2023-12-07T04:16:08;93977.97;;;5.75;100.00
9676;BME280;4876;42.656;23.292;2023-12-07T04:18:35;93980.47;;;5.66;99.36
9676;BME280;4876;42.656;23.292;2023-12-07T04:21:03;93989.84;;;5.81;99.18
9676;BME280;4876;42.656;23.292;2023-12-07T04:23:31;93987.00;;;5.64;98.77
9676;BME280;4876;42.656;23.292;2023-12-07T04:25:58;93994.75;;;5.69;99.27
9676;BME280;4876;42.656;23.292;2023-12-07T04:28:26;93993.88;;;5.60;99.20
9676;BME280;4876;42.656;23.292;2023-12-07T04:30:53;93997.38;;;5.69;99.21
9676;BME280;4876;42.656;23.292;2023-12-07T04:33:20;93999.84;;;5.47;98.59
9676;BME280;4876;42.656;23.292;2023-12-07T04:35:48;94003.25;;;5.61;99.40
9676;BME280;4876;42.656;23.292;2023-12-07T04:38:15;94001.72;;;5.60;98.95
9676;BME280;4876;42.656;23.292;2023-12-07T04:40:42;94001.34;;;5.80;99.29
9676;BME280;4876;42.656;23.292;2023-12-07T04:43:09;94005.13;;;5.74;99.67
9676;BME280;4876;42.656;23.292;2023-12-07T04:45:37;94005.28;;;5.64;100.00
9676;BME280;4876;42.656;23.292;2023-12-07T04:48:05;94005.94;;;5.56;100.00
9676;BME280;4876;42.656;23.292;2023-12-07T04:50:32;94003.22;;;5.47;100.00
9676;BME280;4876;42.656;23.292;2023-12-07T04:53:17;94002.09;;;5.67;100.00
9676;BME280;4876;42.656;23.292;2023-12-07T04:55:44;94004.63;;;5.72;100.00
9676;BME280;4876;42.656;23.292;2023-12-07T04:58:15;94006.56;;;5.66;100.00
9676;BME280;4876;42.656;23.292;2023-12-07T05:00:43;94011.06;;;5.61;99.83
9676;BME280;4876;42.656;23.292;2023-12-07T05:03:10;94009.09;;;5.72;99.74
9676;BME280;4876;42.656;23.292;2023-12-07T05:05:37;94013.94;;;5.78;99.55
9676;BME280;4876;42.656;23.292;2023-12-07T05:08:04;94015.06;;;5.72;99.22
9676;BME280;4876;42.656;23.292;2023-12-07T05:10:31;94012.31;;;5.63;98.82
9676;BME280;4876;42.656;23.292;2023-12-07T05:12:58;94014.56;;;5.70;98.51
9676;BME280;4876;42.656;23.292;2023-12-07T05:15:25;94022.91;;;5.72;97.99
9676;BME280;4876;42.656;23.292;2023-12-07T05:17:54;94020.59;;;5.52;98.09
9676;BME280;4876;42.656;23.292;2023-12-07T05:20:21;94024.34;;;5.46;100.00
9676;BME280;4876;42.656;23.292;2023-12-07T05:22:49;94026.81;;;5.56;99.59
9676;BME280;4876;42.656;23.292;2023-12-07T05:25:16;94016.78;;;5.63;99.81
9676;BME280;4876;42.656;23.292;2023-12-07T05:27:44;94024.50;;;5.54;98.74
9676;BME280;4876;42.656;23.292;2023-12-07T05:30:12;94031.44;;;5.59;99.37
9676;BME280;4876;42.656;23.292;2023-12-07T05:32:39;94040.31;;;5.58;100.00
9676;BME280;4876;42.656;23.292;2023-12-07T05:35:07;94036.09;;;5.62;100.00
9676;BME280;4876;42.656;23.292;2023-12-07T05:37:34;94042.00;;;5.67;100.00
9676;BME280;4876;42.656;23.292;2023-12-07T05:40:02;94041.34;;;5.76;100.00
9676;BME280;4876;42.656;23.292;2023-12-07T05:42:30;94035.63;;;5.92;98.52
9676;BME280;4876;42.656;23.292;2023-12-07T05:44:57;94038.72;;;5.94;97.14
9676;BME280;4876;42.656;23.292;2023-12-07T05:47:26;94034.25;;;5.95;97.06
9676;BME280;4876;42.656;23.292;2023-12-07T05:49:53;94049.16;;;5.94;96.74
9676;BME280;4876;42.656;23.292;2023-12-07T05:52:21;94044.13;;;5.98;96.05
9676;BME280;4876;42.656;23.292;2023-12-07T05:54:48;94036.25;;;6.17;95.55
9676;BME280;4876;42.656;23.292;2023-12-07T05:57:15;94042.09;;;5.95;95.44
9676;BME280;4876;42.656;23.292;2023-12-07T05:59:42;94036.34;;;5.79;95.68
9676;BME280;4876;42.656;23.292;2023-12-07T06:02:10;94045.78;;;5.75;96.53
9676;BME280;4876;42.656;23.292;2023-12-07T06:04:36;94039.91;;;5.51;97.79
9676;BME280;4876;42.656;23.292;2023-12-07T06:07:03;94047.25;;;5.49;99.77
9676;BME280;4876;42.656;23.292;2023-12-07T06:09:32;94052.47;;;5.49;98.46
9676;BME280;4876;42.656;23.292;2023-12-07T06:11:59;94060.00;;;5.50;99.04
9676;BME280;4876;42.656;23.292;2023-12-07T06:14:26;94052.25;;;5.45;99.49
9676;BME280;4876;42.656;23.292;2023-12-07T06:16:53;94051.28;;;5.41;100.00
9676;BME280;4876;42.656;23.292;2023-12-07T06:19:20;94049.16;;;5.43;100.00
9676;BME280;4876;42.656;23.292;2023-12-07T06:21:47;94055.81;;;5.68;99.62
9676;BME280;4876;42.656;23.292;2023-12-07T06:24:14;94061.66;;;5.79;98.11
9676;BME280;4876;42.656;23.292;2023-12-07T06:26:43;94053.84;;;5.79;97.30
9676;BME280;4876;42.656;23.292;2023-12-07T06:29:09;94057.59;;;5.73;95.62
9676;BME280;4876;42.656;23.292;2023-12-07T06:31:37;94058.75;;;5.80;95.58
9676;BME280;4876;42.656;23.292;2023-12-07T06:34:09;94056.88;;;5.67;96.59
9676;BME280;4876;42.656;23.292;2023-12-07T06:36:36;94064.97;;;5.84;96.34
9676;BME280;4876;42.656;23.292;2023-12-07T06:39:03;94068.97;;;5.77;95.78
9676;BME280;4876;42.656;23.292;2023-12-07T06:41:30;94069.28;;;5.75;95.58
9676;BME280;4876;42.656;23.292;2023-12-07T06:43:59;94075.84;;;5.91;96.40
9676;BME280;4876;42.656;23.292;2023-12-07T06:46:26;94062.84;;;5.86;95.60
9676;BME280;4876;42.656;23.292;2023-12-07T06:48:53;94068.25;;;5.90;96.25
9676;BME280;4876;42.656;23.292;2023-12-07T06:51:20;94071.44;;;5.87;96.18
9676;BME280;4876;42.656;23.292;2023-12-07T06:53:47;94073.81;;;5.83;96.08
9676;BME280;4876;42.656;23.292;2023-12-07T06:56:14;94076.34;;;5.88;95.88
9676;BME280;4876;42.656;23.292;2023-12-07T06:58:41;94076.41;;;6.02;95.96
9676;BME280;4876;42.656;23.292;2023-12-07T07:01:09;94075.66;;;6.02;95.76
9676;BME280;4876;42.656;23.292;2023-12-07T07:03:38;94078.00;;;6.03;95.89
9676;BME280;4876;42.656;23.292;2023-12-07T07:06:05;94076.88;;;5.90;96.23
9676;BME280;4876;42.656;23.292;2023-12-07T07:08:32;94074.13;;;5.82;97.92
9676;BME280;4876;42.656;23.292;2023-12-07T07:10:59;94080.47;;;5.94;97.77
9676;BME280;4876;42.656;23.292;2023-12-07T07:13:26;94091.44;;;6.10;96.27
9676;BME280;4876;42.656;23.292;2023-12-07T07:15:53;94080.88;;;6.02;96.76
9676;BME280;4876;42.656;23.292;2023-12-07T07:18:21;94080.00;;;6.06;96.18
9676;BME280;4876;42.656;23.292;2023-12-07T07:20:50;94087.06;;;6.06;94.53
9676;BME280;4876;42.656;23.292;2023-12-07T07:23:17;94081.25;;;5.95;94.33
9676;BME280;4876;42.656;23.292;2023-12-07T07:25:44;94090.34;;;5.98;94.53
9676;BME280;4876;42.656;23.292;2023-12-07T07:28:11;94089.34;;;5.93;95.27
9676;BME280;4876;42.656;23.292;2023-12-07T07:30:38;94096.00;;;5.67;96.08
9676;BME280;4876;42.656;23.292;2023-12-07T07:33:05;94090.88;;;5.62;97.34
9676;BME280;4876;42.656;23.292;2023-12-07T07:35:34;94092.97;;;5.79;96.26
9676;BME280;4876;42.656;23.292;2023-12-07T07:38:01;94094.38;;;5.71;96.37
9676;BME280;4876;42.656;23.292;2023-12-07T07:40:28;94094.63;;;5.56;97.04
9676;BME280;4876;42.656;23.292;2023-12-07T07:42:55;94096.16;;;5.57;98.30
9676;BME280;4876;42.656;23.292;2023-12-07T07:45:46;94101.53;;;5.47;100.00
9676;BME280;4876;42.656;23.292;2023-12-07T07:48:13;94102.09;;;5.44;100.00
9676;BME280;4876;42.656;23.292;2023-12-07T07:50:42;94102.09;;;5.44;100.00
9676;BME280;4876;42.656;23.292;2023-12-07T07:53:09;94108.06;;;5.25;100.00
9676;BME280;4876;42.656;23.292;2023-12-07T07:55:42;94105.59;;;5.15;100.00
9676;BME280;4876;42.656;23.292;2023-12-07T07:58:13;94111.44;;;5.07;100.00
9676;BME280;4876;42.656;23.292;2023-12-07T08:00:40;94115.81;;;5.11;100.00
9676;BME280;4876;42.656;23.292;2023-12-07T08:03:07;94116.59;;;5.12;100.00
9676;BME280;4876;42.656;23.292;2023-12-07T08:05:34;94118.78;;;5.24;100.00
9676;BME280;4876;42.656;23.292;2023-12-07T08:08:03;94120.19;;;5.16;100.00
9676;BME280;4876;42.656;23.292;2023-12-07T08:10:30;94124.47;;;5.07;100.00
9676;BME280;4876;42.656;23.292;2023-12-07T08:12:57;94129.69;;;5.07;100.00
9676;BME280;4876;42.656;23.292;2023-12-07T08:15:24;94129.78;;;4.97;100.00
9676;BME280;4876;42.656;23.292;2023-12-07T08:17:51;94138.25;;;4.89;100.00
9676;BME280;4876;42.656;23.292;2023-12-07T08:20:18;94128.03;;;4.92;100.00
9676;BME280;4876;42.656;23.292;2023-12-07T08:22:45;94139.16;;;4.79;100.00
9676;BME280;4876;42.656;23.292;2023-12-07T08:25:13;94144.56;;;4.82;100.00
9676;BME280;4876;42.656;23.292;2023-12-07T08:27:40;94146.22;;;4.73;100.00
9676;BME280;4876;42.656;23.292;2023-12-07T08:30:10;94147.88;;;4.64;100.00
9676;BME280;4876;42.656;23.292;2023-12-07T08:32:37;94144.78;;;4.62;100.00
9676;BME280;4876;42.656;23.292;2023-12-07T08:35:05;94152.66;;;4.57;100.00
9676;BME280;4876;42.656;23.292;2023-12-07T08:37:32;94146.63;;;4.32;100.00
9676;BME280;4876;42.656;23.292;2023-12-07T08:39:59;94152.06;;;4.36;100.00
9676;BME280;4876;42.656;23.292;2023-12-07T08:42:27;94153.50;;;4.23;100.00
9676;BME280;4876;42.656;23.292;2023-12-07T08:44:57;94157.59;;;4.29;100.00
9676;BME280;4876;42.656;23.292;2023-12-07T08:47:24;94150.19;;;4.42;100.00
9676;BME280;4876;42.656;23.292;2023-12-07T08:49:53;94159.63;;;4.62;100.00
9676;BME280;4876;42.656;23.292;2023-12-07T08:52:20;94157.28;;;4.36;100.00
9676;BME280;4876;42.656;23.292;2023-12-07T08:54:47;94161.31;;;4.23;100.00
9676;BME280;4876;42.656;23.292;2023-12-07T08:57:14;94157.72;;;4.43;100.00
9676;BME280;4876;42.656;23.292;2023-12-07T08:59:42;94163.72;;;4.44;100.00
9676;BME280;4876;42.656;23.292;2023-12-07T09:02:09;94163.09;;;4.52;100.00
9676;BME280;4876;42.656;23.292;2023-12-07T09:04:36;94165.81;;;4.42;100.00
9676;BME280;4876;42.656;23.292;2023-12-07T09:07:04;94163.31;;;4.31;99.16
9676;BME280;4876;42.656;23.292;2023-12-07T09:09:32;94164.97;;;4.22;100.00
9676;BME280;4876;42.656;23.292;2023-12-07T09:11:58;94165.44;;;4.24;100.00
9676;BME280;4876;42.656;23.292;2023-12-07T09:14:25;94158.59;;;4.33;100.00
9676;BME280;4876;42.656;23.292;2023-12-07T09:16:54;94163.34;;;4.26;99.83
9676;BME280;4876;42.656;23.292;2023-12-07T09:19:21;94160.13;;;4.35;100.00
9676;BME280;4876;42.656;23.292;2023-12-07T09:21:49;94169.88;;;4.24;99.00
9676;BME280;4876;42.656;23.292;2023-12-07T09:24:16;94159.97;;;4.26;98.91
9676;BME280;4876;42.656;23.292;2023-12-07T09:26:42;94162.19;;;4.09;98.96
9676;BME280;4876;42.656;23.292;2023-12-07T09:29:09;94164.03;;;4.03;99.49
9676;BME280;4876;42.656;23.292;2023-12-07T09:31:36;94164.56;;;4.05;100.00
9676;BME280;4876;42.656;23.292;2023-12-07T09:34:04;94162.81;;;3.95;99.85
9676;BME280;4876;42.656;23.292;2023-12-07T09:36:33;94167.28;;;3.90;99.09
9676;BME280;4876;42.656;23.292;2023-12-07T09:39:00;94164.59;;;4.00;99.09
9676;BME280;4876;42.656;23.292;2023-12-07T09:41:28;94164.44;;;3.91;98.86
9676;BME280;4876;42.656;23.292;2023-12-07T09:43:55;94161.59;;;3.83;98.55
9676;BME280;4876;42.656;23.292;2023-12-07T09:46:22;94165.28;;;3.76;98.84
9676;BME280;4876;42.656;23.292;2023-12-07T09:48:50;94171.84;;;3.69;97.83
9676;BME280;4876;42.656;23.292;2023-12-07T09:51:19;94172.66;;;3.64;97.48
9676;BME280;4876;42.656;23.292;2023-12-07T09:53:48;94166.97;;;3.57;97.72
9676;BME280;4876;42.656;23.292;2023-12-07T09:56:17;94165.63;;;3.65;97.69
9676;BME280;4876;42.656;23.292;2023-12-07T09:58:44;94161.81;;;3.52;97.45
9676;BME280;4876;42.656;23.292;2023-12-07T10:01:11;94165.94;;;3.53;98.39
9676;BME280;4876;42.656;23.292;2023-12-07T10:03:40;94170.31;;;3.63;100.00
9676;BME280;4876;42.656;23.292;2023-12-07T10:06:07;94175.25;;;3.64;98.75
9676;BME280;4876;42.656;23.292;2023-12-07T10:08:35;94171.75;;;3.40;98.59
9676;BME280;4876;42.656;23.292;2023-12-07T10:11:07;94183.19;;;3.39;99.65
9676;BME280;4876;42.656;23.292;2023-12-07T10:13:35;94176.50;;;3.28;100.00
9676;BME280;4876;42.656;23.292;2023-12-07T10:16:06;94170.78;;;3.26;100.00
9676;BME280;4876;42.656;23.292;2023-12-07T10:18:34;94168.41;;;3.29;99.90
9676;BME280;4876;42.656;23.292;2023-12-07T10:21:02;94171.84;;;3.24;99.80
9676;BME280;4876;42.656;23.292;2023-12-07T10:23:29;94170.53;;;3.22;98.95
9676;BME280;4876;42.656;23.292;2023-12-07T10:25:59;94162.56;;;3.03;99.33
9676;BME280;4876;42.656;23.292;2023-12-07T10:28:26;94164.59;;;3.16;100.00
9676;BME280;4876;42.656;23.292;2023-12-07T10:30:53;94168.59;;;2.93;99.84
9676;BME280;4876;42.656;23.292;2023-12-07T10:33:20;94168.88;;;2.87;100.00
9676;BME280;4876;42.656;23.292;2023-12-07T10:35:47;94165.72;;;2.95;100.00
9676;BME280;4876;42.656;23.292;2023-12-07T10:38:15;94169.69;;;2.77;100.00
9676;BME280;4876;42.656;23.292;2023-12-07T10:40:45;94167.34;;;2.76;100.00
9676;BME280;4876;42.656;23.292;2023-12-07T10:43:15;94168.59;;;2.93;100.00
9676;BME280;4876;42.656;23.292;2023-12-07T10:45:47;94172.03;;;2.74;100.00
9676;BME280;4876;42.656;23.292;2023-12-07T10:48:14;94157.03;;;2.55;100.00
9676;BME280;4876;42.656;23.292;2023-12-07T10:50:42;94158.53;;;2.66;100.00
9676;BME280;4876;42.656;23.292;2023-12-07T10:53:18;94168.91;;;2.66;100.00
9676;BME280;4876;42.656;23.292;2023-12-07T10:55:47;94150.50;;;2.63;100.00
9676;BME280;4876;42.656;23.292;2023-12-07T10:58:21;94161.91;;;2.67;100.00
9676;BME280;4876;42.656;23.292;2023-12-07T11:00:51;94163.50;;;2.68;100.00
9676;BME280;4876;42.656;23.292;2023-12-07T11:03:19;94163.19;;;2.75;100.00
9676;BME280;4876;42.656;23.292;2023-12-07T11:05:47;94165.81;;;2.69;100.00
9676;BME280;4876;42.656;23.292;2023-12-07T11:08:21;94166.81;;;2.79;100.00
9676;BME280;4876;42.656;23.292;2023-12-07T11:11:00;94173.63;;;2.59;100.00
9676;BME280;4876;42.656;23.292;2023-12-07T11:13:33;94165.03;;;2.64;100.00
9676;BME280;4876;42.656;23.292;2023-12-07T11:16:00;94175.69;;;2.67;100.00
9676;BME280;4876;42.656;23.292;2023-12-07T11:18:27;94166.09;;;2.68;100.00
9676;BME280;4876;42.656;23.292;2023-12-07T11:20:55;94166.03;;;2.78;100.00
9676;BME280;4876;42.656;23.292;2023-12-07T11:23:22;94169.94;;;2.81;100.00
9676;BME280;4876;42.656;23.292;2023-12-07T11:25:52;94165.78;;;2.80;100.00
9676;BME280;4876;42.656;23.292;2023-12-07T11:28:35;94151.00;;;2.70;100.00
9676;BME280;4876;42.656;23.292;2023-12-07T11:31:03;94169.16;;;2.80;100.00
9676;BME280;4876;42.656;23.292;2023-12-07T11:33:30;94162.66;;;2.83;100.00
9676;BME280;4876;42.656;23.292;2023-12-07T11:36:04;94156.41;;;2.84;100.00
9676;BME280;4876;42.656;23.292;2023-12-07T11:38:31;94160.06;;;2.83;100.00
9676;BME280;4876;42.656;23.292;2023-12-07T11:40:59;94144.19;;;2.84;100.00
9676;BME280;4876;42.656;23.292;2023-12-07T11:43:41;94151.19;;;2.89;100.00
9676;BME280;4876;42.656;23.292;2023-12-07T11:46:11;94149.09;;;2.91;100.00
9676;BME280;4876;42.656;23.292;2023-12-07T11:48:39;94142.63;;;2.88;100.00
9676;BME280;4876;42.656;23.292;2023-12-07T11:51:07;94150.13;;;2.95;100.00
9676;BME280;4876;42.656;23.292;2023-12-07T11:53:35;94144.97;;;2.85;100.00
9676;BME280;4876;42.656;23.292;2023-12-07T11:56:03;94156.69;;;2.82;100.00
9676;BME280;4876;42.656;23.292;2023-12-07T11:58:32;94152.25;;;2.83;100.00
9676;BME280;4876;42.656;23.292;2023-12-07T12:01:01;94155.34;;;2.90;100.00
9676;BME280;4876;42.656;23.292;2023-12-07T12:03:31;94149.88;;;2.91;100.00
9676;BME280;4876;42.656;23.292;2023-12-07T12:05:58;94153.00;;;2.99;100.00
9676;BME280;4876;42.656;23.292;2023-12-07T12:08:25;94152.25;;;2.93;100.00
9676;BME280;4876;42.656;23.292;2023-12-07T12:10:54;94154.78;;;2.98;99.92
9676;BME280;4876;42.656;23.292;2023-12-07T12:13:26;94150.88;;;3.06;99.41
9676;BME280;4876;42.656;23.292;2023-12-07T12:15:54;94145.97;;;2.99;99.13
9676;BME280;4876;42.656;23.292;2023-12-07T12:18:23;94149.94;;;2.81;97.92
9676;BME280;4876;42.656;23.292;2023-12-07T12:20:51;94140.06;;;2.78;98.72
9676;BME280;4876;42.656;23.292;2023-12-07T12:23:19;94150.22;;;2.80;99.67
9676;BME280;4876;42.656;23.292;2023-12-07T12:25:46;94142.13;;;2.86;100.00
9676;BME280;4876;42.656;23.292;2023-12-07T12:28:16;94150.69;;;2.87;100.00
9676;BME280;4876;42.656;23.292;2023-12-07T12:30:44;94146.03;;;2.79;100.00
9676;BME280;4876;42.656;23.292;2023-12-07T12:33:13;94151.75;;;2.81;100.00
9676;BME280;4876;42.656;23.292;2023-12-07T12:35:41;94143.97;;;2.76;100.00
9676;BME280;4876;42.656;23.292;2023-12-07T12:38:11;94152.00;;;2.79;100.00
9676;BME280;4876;42.656;23.292;2023-12-07T12:40:38;94151.75;;;2.81;100.00
9676;BME280;4876;42.656;23.292;2023-12-07T12:43:07;94146.31;;;2.77;100.00
9676;BME280;4876;42.656;23.292;2023-12-07T12:45:34;94149.22;;;2.60;100.00
9676;BME280;4876;42.656;23.292;2023-12-07T12:48:01;94155.94;;;2.66;100.00
9676;BME280;4876;42.656;23.292;2023-12-07T12:50:36;94166.38;;;2.61;100.00
9676;BME280;4876;42.656;23.292;2023-12-07T12:53:06;94161.41;;;2.65;100.00
9676;BME280;4876;42.656;23.292;2023-12-07T12:55:35;94167.38;;;2.65;100.00
9676;BME280;4876;42.656;23.292;2023-12-07T12:58:03;94169.19;;;2.60;100.00
9676;BME280;4876;42.656;23.292;2023-12-07T13:00:32;94168.44;;;2.54;100.00
9676;BME280;4876;42.656;23.292;2023-12-07T13:03:00;94171.06;;;2.49;100.00
9676;BME280;4876;42.656;23.292;2023-12-07T13:05:27;94175.72;;;2.47;100.00
9676;BME280;4876;42.656;23.292;2023-12-07T13:07:54;94177.25;;;2.48;100.00
9676;BME280;4876;42.656;23.292;2023-12-07T13:10:22;94174.16;;;2.41;100.00
9676;BME280;4876;42.656;23.292;2023-12-07T13:12:49;94181.72;;;2.27;100.00
9676;BME280;4876;42.656;23.292;2023-12-07T13:15:16;94180.41;;;2.30;100.00
9676;BME280;4876;42.656;23.292;2023-12-07T13:17:44;94180.94;;;2.22;100.00
9676;BME280;4876;42.656;23.292;2023-12-07T13:20:11;94189.25;;;2.19;100.00